createdAt,value
2023-04-27T00:00:15.414Z,12.49
2023-04-27T00:00:37.514Z,12.48
2023-04-27T00:00:59.393Z,12.48
2023-04-27T00:01:21.892Z,12.47
2023-04-27T00:01:43.840Z,12.46
2023-04-27T00:02:06.761Z,12.45
2023-04-27T00:02:28.956Z,12.45
2023-04-27T00:02:51.090Z,12.44
2023-04-27T00:03:13.783Z,12.44
2023-04-27T00:03:36.137Z,12.44
2023-04-27T00:03:58.843Z,12.43
2023-04-27T00:04:21.249Z,12.42
2023-04-27T00:04:43.466Z,12.42
2023-04-27T00:05:06.051Z,12.42
2023-04-27T00:05:28.170Z,12.43
2023-04-27T00:05:50.546Z,12.44
2023-04-27T00:06:12.982Z,12.45
2023-04-27T00:06:35.155Z,12.46
2023-04-27T00:06:57.051Z,12.48
2023-04-27T00:07:18.927Z,12.49
2023-04-27T00:07:41.437Z,12.50
2023-04-27T00:08:03.423Z,12.52
2023-04-27T00:08:25.414Z,12.53
2023-04-27T00:08:47.605Z,12.54
2023-04-27T00:09:09.496Z,12.54
2023-04-27T00:09:31.577Z,12.55
2023-04-27T00:09:53.465Z,12.55
2023-04-27T00:10:15.358Z,12.55
2023-04-27T00:10:37.238Z,12.55
2023-04-27T00:10:59.131Z,12.54
2023-04-27T00:11:21.425Z,12.54
2023-04-27T00:11:43.315Z,12.54
2023-04-27T00:12:05.509Z,12.53
2023-04-27T00:12:27.490Z,12.53
2023-04-27T00:12:49.485Z,12.53
2023-04-27T00:13:11.370Z,12.52
2023-04-27T00:13:33.259Z,12.52
2023-04-27T00:13:55.139Z,12.51
2023-04-27T00:14:17.035Z,12.51
2023-04-27T00:14:38.927Z,12.51
2023-04-27T00:15:01.123Z,12.50
2023-04-27T00:15:23.101Z,12.50
2023-04-27T00:15:45.635Z,12.50
2023-04-27T00:16:07.529Z,12.50
2023-04-27T00:16:29.648Z,12.49
2023-04-27T00:16:51.751Z,12.49
2023-04-27T00:17:13.764Z,12.49
2023-04-27T00:17:35.983Z,12.48
2023-04-27T00:17:57.966Z,12.48
2023-04-27T00:18:20.028Z,12.47
2023-04-27T00:18:42.429Z,12.47
2023-04-27T00:19:04.527Z,12.46
2023-04-27T00:19:26.306Z,12.46
2023-04-27T00:19:48.699Z,12.45
2023-04-27T00:20:12.338Z,12.45
2023-04-27T00:20:34.116Z,12.44
2023-04-27T00:20:56.109Z,12.44
2023-04-27T00:21:18.194Z,12.42
2023-04-27T00:21:39.981Z,12.43
2023-04-27T00:22:01.880Z,12.42
2023-04-27T00:22:23.749Z,12.42
2023-04-27T00:22:46.052Z,12.41
2023-04-27T00:23:07.942Z,12.41
2023-04-27T00:23:29.716Z,12.40
2023-04-27T00:23:51.610Z,12.41
2023-04-27T00:24:13.493Z,12.40
2023-04-27T00:24:35.377Z,12.39
2023-04-27T00:24:57.156Z,12.39
2023-04-27T00:25:19.057Z,12.38
2023-04-27T00:25:41.257Z,12.38
2023-04-27T00:26:03.080Z,12.37
2023-04-27T00:26:24.925Z,12.37
2023-04-27T00:26:47.002Z,12.36
2023-04-27T00:27:08.888Z,12.36
2023-04-27T00:27:30.676Z,12.34
2023-04-27T00:27:52.766Z,12.35
2023-04-27T00:28:14.660Z,12.35
2023-04-27T00:28:36.401Z,12.36
2023-04-27T00:28:58.232Z,12.36
2023-04-27T00:29:20.011Z,12.38
2023-04-27T00:29:44.566Z,12.39
2023-04-27T00:30:06.749Z,12.41
2023-04-27T00:30:28.633Z,12.42
2023-04-27T00:30:50.836Z,12.43
2023-04-27T00:31:12.818Z,12.44
2023-04-27T00:31:34.718Z,12.46
2023-04-27T00:31:56.835Z,12.46
2023-04-27T00:32:18.683Z,12.47
2023-04-27T00:32:40.819Z,12.47
2023-04-27T00:33:03.152Z,12.47
2023-04-27T00:33:25.162Z,12.48
2023-04-27T00:33:47.051Z,12.47
2023-04-27T00:34:11.094Z,12.47
2023-04-27T00:34:32.843Z,12.47
2023-04-27T00:34:54.782Z,12.47
2023-04-27T00:35:16.740Z,12.46
2023-04-27T00:35:38.523Z,12.46
2023-04-27T00:36:01.556Z,12.46
2023-04-27T00:36:23.424Z,12.45
2023-04-27T00:36:45.210Z,12.45
2023-04-27T00:37:08.027Z,12.45
2023-04-27T00:37:29.812Z,12.44
2023-04-27T00:37:53.428Z,12.44
2023-04-27T00:38:15.312Z,12.43
2023-04-27T00:38:37.207Z,12.43
2023-04-27T00:39:00.433Z,12.43
2023-04-27T00:39:22.173Z,12.42
2023-04-27T00:39:44.002Z,12.42
2023-04-27T00:40:08.055Z,12.41
2023-04-27T00:40:30.118Z,12.41
2023-04-27T00:40:51.897Z,12.40
2023-04-27T00:41:15.075Z,12.39
2023-04-27T00:41:37.633Z,12.37
2023-04-27T00:42:00.211Z,12.38
2023-04-27T00:42:21.999Z,12.37
2023-04-27T00:42:46.661Z,12.36
2023-04-27T00:43:08.534Z,12.35
2023-04-27T00:43:30.837Z,12.34
2023-04-27T00:43:52.822Z,12.34
2023-04-27T00:44:22.164Z,12.33
2023-04-27T00:44:44.072Z,12.32
2023-04-27T00:45:06.365Z,12.32
2023-04-27T00:45:28.251Z,12.31
2023-04-27T00:45:50.054Z,12.31
2023-04-27T00:46:12.267Z,12.30
2023-04-27T00:46:35.354Z,12.29
2023-04-27T00:46:57.220Z,12.29
2023-04-27T00:47:19.379Z,12.29
2023-04-27T00:47:41.443Z,12.28
2023-04-27T00:48:03.433Z,12.27
2023-04-27T00:48:25.383Z,12.26
2023-04-27T00:48:47.584Z,12.26
2023-04-27T00:49:09.360Z,12.25
2023-04-27T00:49:31.141Z,12.25
2023-04-27T00:49:52.925Z,12.26
2023-04-27T00:50:14.807Z,12.27
2023-04-27T00:50:38.883Z,12.28
2023-04-27T00:51:01.158Z,12.29
2023-04-27T00:51:27.870Z,12.30
2023-04-27T00:51:50.743Z,12.30
2023-04-27T00:52:12.529Z,12.31
2023-04-27T00:52:35.232Z,12.32
2023-04-27T00:52:56.954Z,12.32
2023-04-27T00:53:18.753Z,12.33
2023-04-27T00:53:40.589Z,12.32
2023-04-27T00:54:03.596Z,12.32
2023-04-27T00:54:25.484Z,12.31
2023-04-27T00:54:48.702Z,12.30
2023-04-27T00:55:10.892Z,12.30
2023-04-27T00:55:35.084Z,12.28
2023-04-27T00:55:58.774Z,12.28
2023-04-27T00:56:20.647Z,12.26
2023-04-27T00:56:43.615Z,12.25
2023-04-27T00:57:05.447Z,12.24
2023-04-27T00:57:27.229Z,12.23
2023-04-27T00:57:49.011Z,12.22
2023-04-27T00:58:11.960Z,12.21
2023-04-27T00:58:33.722Z,12.20
2023-04-27T00:58:55.839Z,12.19
2023-04-27T00:59:17.910Z,12.18
2023-04-27T00:59:40.478Z,12.18
2023-04-27T01:00:02.701Z,12.16
2023-04-27T01:00:24.719Z,12.16
2023-04-27T01:00:46.571Z,12.16
2023-04-27T01:01:10.130Z,12.16
2023-04-27T01:01:31.961Z,12.15
2023-04-27T01:01:55.256Z,12.14
2023-04-27T01:02:17.565Z,12.14
2023-04-27T01:02:40.750Z,12.13
2023-04-27T01:03:03.113Z,12.12
2023-04-27T01:03:25.059Z,12.12
2023-04-27T01:03:48.275Z,12.12
2023-04-27T01:04:10.759Z,12.11
2023-04-27T01:04:33.195Z,12.10
2023-04-27T01:04:55.089Z,12.10
2023-04-27T01:05:16.873Z,12.10
2023-04-27T01:05:41.636Z,12.10
2023-04-27T01:06:04.277Z,12.11
2023-04-27T01:06:28.368Z,12.12
2023-04-27T01:06:50.280Z,12.13
2023-04-27T01:07:12.133Z,12.14
2023-04-27T01:07:33.919Z,12.16
2023-04-27T01:07:55.910Z,12.16
2023-04-27T01:08:17.692Z,12.17
2023-04-27T01:08:39.478Z,12.17
2023-04-27T01:09:01.258Z,12.18
2023-04-27T01:09:23.657Z,12.18
2023-04-27T01:09:46.847Z,12.17
2023-04-27T01:10:11.114Z,12.17
2023-04-27T01:10:32.915Z,12.16
2023-04-27T01:10:54.986Z,12.16
2023-04-27T01:11:16.776Z,12.15
2023-04-27T01:11:38.481Z,12.14
2023-04-27T01:12:01.467Z,12.13
2023-04-27T01:12:23.251Z,12.12
2023-04-27T01:12:44.969Z,12.11
2023-04-27T01:13:06.681Z,12.10
2023-04-27T01:13:28.503Z,12.09
2023-04-27T01:13:50.289Z,12.08
2023-04-27T01:14:11.994Z,12.07
2023-04-27T01:14:33.758Z,12.06
2023-04-27T01:14:55.538Z,12.05
2023-04-27T01:15:17.319Z,12.04
2023-04-27T01:15:39.046Z,12.03
2023-04-27T01:16:04.574Z,12.02
2023-04-27T01:16:26.702Z,12.01
2023-04-27T01:16:48.606Z,12.00
2023-04-27T01:17:11.114Z,11.98
2023-04-27T01:17:33.452Z,11.97
2023-04-27T01:17:59.082Z,11.96
2023-04-27T01:18:23.772Z,11.95
2023-04-27T01:18:45.759Z,11.94
2023-04-27T01:19:07.849Z,11.93
2023-04-27T01:19:29.630Z,11.92
2023-04-27T01:19:55.607Z,11.91
2023-04-27T01:20:17.394Z,11.90
2023-04-27T01:20:39.191Z,11.89
2023-04-27T01:21:01.387Z,11.89
2023-04-27T01:21:23.159Z,11.88
2023-04-27T01:21:44.944Z,11.88
2023-04-27T01:22:07.250Z,11.87
2023-04-27T01:22:29.024Z,11.86
2023-04-27T01:22:50.927Z,11.86
2023-04-27T01:23:16.136Z,11.86
2023-04-27T01:23:38.746Z,11.86
2023-04-27T01:24:00.561Z,11.87
2023-04-27T01:24:22.343Z,11.88
2023-04-27T01:24:44.543Z,11.89
2023-04-27T01:25:08.181Z,11.90
2023-04-27T01:25:30.060Z,11.92
2023-04-27T01:25:51.835Z,11.94
2023-04-27T01:26:16.684Z,11.96
2023-04-27T01:26:38.382Z,11.97
2023-04-27T01:27:00.165Z,11.98
2023-04-27T01:27:21.858Z,12.00
2023-04-27T01:27:43.734Z,12.01
2023-04-27T01:28:06.025Z,12.02
2023-04-27T01:28:27.805Z,12.03
2023-04-27T01:28:49.897Z,12.03
2023-04-27T01:29:11.862Z,12.03
2023-04-27T01:29:33.872Z,12.03
2023-04-27T01:29:55.975Z,12.03
2023-04-27T01:30:19.278Z,12.02
2023-04-27T01:30:41.080Z,12.01
2023-04-27T01:31:02.894Z,12.00
2023-04-27T01:31:24.764Z,12.00
2023-04-27T01:31:46.743Z,11.98
2023-04-27T01:32:10.673Z,11.97
2023-04-27T01:32:32.388Z,11.96
2023-04-27T01:32:54.251Z,11.95
2023-04-27T01:33:16.114Z,11.94
2023-04-27T01:33:38.309Z,11.93
2023-04-27T01:34:01.449Z,11.91
2023-04-27T01:34:23.194Z,11.90
2023-04-27T01:34:44.987Z,11.89
2023-04-27T01:35:07.621Z,11.88
2023-04-27T01:35:29.369Z,11.86
2023-04-27T01:35:54.946Z,11.86
2023-04-27T01:36:16.939Z,11.86
2023-04-27T01:36:38.934Z,11.84
2023-04-27T01:37:00.715Z,11.84
2023-04-27T01:37:22.467Z,11.84
2023-04-27T01:37:45.826Z,11.83
2023-04-27T01:38:07.605Z,11.83
2023-04-27T01:38:29.391Z,11.82
2023-04-27T01:38:51.780Z,11.82
2023-04-27T01:39:13.862Z,11.82
2023-04-27T01:39:36.375Z,11.82
2023-04-27T01:39:58.118Z,11.82
2023-04-27T01:40:19.811Z,11.84
2023-04-27T01:40:42.350Z,11.85
2023-04-27T01:41:04.745Z,11.86
2023-04-27T01:41:26.852Z,11.88
2023-04-27T01:41:48.631Z,11.90
2023-04-27T01:42:10.529Z,11.90
2023-04-27T01:42:34.440Z,11.92
2023-04-27T01:42:56.424Z,11.92
2023-04-27T01:43:18.515Z,11.93
2023-04-27T01:43:40.399Z,11.93
2023-04-27T01:44:02.101Z,11.93
2023-04-27T01:44:24.899Z,11.92
2023-04-27T01:44:46.685Z,11.91
2023-04-27T01:45:09.284Z,11.90
2023-04-27T01:45:31.059Z,11.88
2023-04-27T01:45:55.062Z,11.87
2023-04-27T01:46:17.031Z,11.85
2023-04-27T01:46:38.949Z,11.84
2023-04-27T01:47:01.941Z,11.82
2023-04-27T01:47:23.812Z,11.80
2023-04-27T01:47:45.687Z,11.79
2023-04-27T01:48:07.764Z,11.77
2023-04-27T01:48:29.478Z,11.76
2023-04-27T01:48:51.318Z,11.74
2023-04-27T01:49:13.330Z,11.73
2023-04-27T01:49:35.309Z,11.72
2023-04-27T01:49:57.020Z,11.70
2023-04-27T01:50:19.076Z,11.69
2023-04-27T01:50:41.166Z,11.68
2023-04-27T01:51:03.783Z,11.67
2023-04-27T01:51:25.767Z,11.66
2023-04-27T01:51:47.539Z,11.64
2023-04-27T01:52:10.607Z,11.63
2023-04-27T01:52:32.435Z,11.63
2023-04-27T01:52:54.236Z,11.62
2023-04-27T01:53:16.551Z,11.59
2023-04-27T01:53:38.313Z,11.58
2023-04-27T01:54:00.051Z,11.57
2023-04-27T01:54:21.869Z,11.57
2023-04-27T01:54:43.653Z,11.57
2023-04-27T01:55:06.462Z,11.55
2023-04-27T01:55:28.274Z,11.55
2023-04-27T01:55:50.127Z,11.55
2023-04-27T01:56:12.013Z,11.54
2023-04-27T01:56:33.805Z,11.54
2023-04-27T01:56:55.800Z,11.53
2023-04-27T01:57:17.881Z,11.53
2023-04-27T01:57:39.685Z,11.53
2023-04-27T01:58:01.405Z,11.53
2023-04-27T01:58:23.336Z,11.54
2023-04-27T01:58:45.129Z,11.55
2023-04-27T01:59:07.030Z,11.56
2023-04-27T01:59:28.777Z,11.57
2023-04-27T01:59:51.090Z,11.59
2023-04-27T02:00:13.122Z,11.61
2023-04-27T02:00:43.587Z,11.64
2023-04-27T02:01:05.450Z,11.65
2023-04-27T02:01:27.266Z,11.67
2023-04-27T02:01:49.067Z,11.68
2023-04-27T02:02:11.099Z,11.69
2023-04-27T02:02:33.664Z,11.70
2023-04-27T02:02:57.594Z,11.70
2023-04-27T02:03:19.629Z,11.71
2023-04-27T02:03:42.113Z,11.71
2023-04-27T02:04:04.476Z,11.71
2023-04-27T02:04:26.626Z,11.71
2023-04-27T02:04:48.803Z,11.71
2023-04-27T02:05:10.596Z,11.71
2023-04-27T02:05:32.383Z,11.71
2023-04-27T02:05:54.158Z,11.70
2023-04-27T02:06:15.883Z,11.70
2023-04-27T02:06:37.631Z,11.70
2023-04-27T02:07:01.459Z,11.69
2023-04-27T02:07:23.590Z,11.70
2023-04-27T02:07:45.557Z,11.70
2023-04-27T02:08:07.270Z,11.69
2023-04-27T02:08:29.219Z,11.69
2023-04-27T02:08:51.004Z,11.68
2023-04-27T02:09:13.661Z,11.68
2023-04-27T02:09:35.668Z,11.68
2023-04-27T02:09:57.476Z,11.67
2023-04-27T02:10:19.363Z,11.67
2023-04-27T02:10:41.453Z,11.66
2023-04-27T02:11:03.173Z,11.67
2023-04-27T02:11:25.023Z,11.66
2023-04-27T02:11:47.011Z,11.66
2023-04-27T02:12:08.806Z,11.66
2023-04-27T02:12:30.715Z,11.66
2023-04-27T02:12:52.579Z,11.65
2023-04-27T02:13:14.966Z,11.65
2023-04-27T02:13:36.751Z,11.65
2023-04-27T02:13:58.537Z,11.64
2023-04-27T02:14:25.748Z,11.64
2023-04-27T02:14:47.531Z,11.63
2023-04-27T02:15:09.723Z,11.63
2023-04-27T02:15:31.503Z,11.62
2023-04-27T02:15:53.312Z,11.62
2023-04-27T02:16:16.255Z,11.61
2023-04-27T02:16:38.263Z,11.60
2023-04-27T02:17:00.594Z,11.59
2023-04-27T02:17:22.371Z,11.58
2023-04-27T02:17:44.301Z,11.58
2023-04-27T02:18:07.842Z,11.58
2023-04-27T02:18:29.673Z,11.58
2023-04-27T02:18:54.011Z,11.57
2023-04-27T02:19:17.137Z,11.57
2023-04-27T02:19:39.112Z,11.58
2023-04-27T02:20:01.008Z,11.58
2023-04-27T02:20:23.189Z,11.60
2023-04-27T02:20:44.976Z,11.62
2023-04-27T02:21:10.356Z,11.64
2023-04-27T02:21:32.941Z,11.66
2023-04-27T02:21:54.733Z,11.67
2023-04-27T02:22:17.644Z,11.69
2023-04-27T02:22:43.848Z,11.71
2023-04-27T02:23:05.707Z,11.72
2023-04-27T02:23:27.596Z,11.73
2023-04-27T02:23:49.302Z,11.74
2023-04-27T02:24:12.693Z,11.75
2023-04-27T02:24:35.605Z,11.75
2023-04-27T02:24:57.325Z,11.75
2023-04-27T02:25:19.291Z,11.74
2023-04-27T02:25:46.786Z,11.73
2023-04-27T02:26:08.736Z,11.72
2023-04-27T02:26:33.114Z,11.71
2023-04-27T02:26:54.901Z,11.70
2023-04-27T02:27:16.704Z,11.69
2023-04-27T02:27:39.290Z,11.68
2023-04-27T02:28:01.702Z,11.67
2023-04-27T02:28:23.983Z,11.66
2023-04-27T02:28:47.818Z,11.66
2023-04-27T02:29:10.112Z,11.65
2023-04-27T02:29:32.618Z,11.63
2023-04-27T02:29:54.981Z,11.63
2023-04-27T02:30:18.123Z,11.62
2023-04-27T02:30:40.829Z,11.60
2023-04-27T02:31:03.094Z,11.59
2023-04-27T02:31:25.037Z,11.58
2023-04-27T02:31:47.151Z,11.57
2023-04-27T02:32:09.091Z,11.57
2023-04-27T02:32:31.345Z,11.57
2023-04-27T02:32:53.926Z,11.57
2023-04-27T02:33:16.191Z,11.56
2023-04-27T02:33:37.966Z,11.56
2023-04-27T02:33:59.753Z,11.56
2023-04-27T02:34:21.459Z,11.56
2023-04-27T02:34:43.221Z,11.57
2023-04-27T02:35:05.305Z,11.58
2023-04-27T02:35:27.299Z,11.60
2023-04-27T02:35:49.084Z,11.62
2023-04-27T02:36:10.871Z,11.64
2023-04-27T02:36:32.890Z,11.66
2023-04-27T02:36:54.648Z,11.68
2023-04-27T02:37:16.372Z,11.69
2023-04-27T02:37:38.427Z,11.71
2023-04-27T02:38:00.205Z,11.73
2023-04-27T02:38:23.008Z,11.75
2023-04-27T02:38:44.699Z,11.77
2023-04-27T02:39:06.470Z,11.77
2023-04-27T02:39:28.223Z,11.78
2023-04-27T02:39:50.048Z,11.78
2023-04-27T02:40:12.145Z,11.77
2023-04-27T02:40:34.019Z,11.77
2023-04-27T02:40:55.891Z,11.77
2023-04-27T02:41:17.696Z,11.76
2023-04-27T02:41:39.472Z,11.76
2023-04-27T02:42:03.104Z,11.75
2023-04-27T02:42:24.833Z,11.74
2023-04-27T02:42:46.675Z,11.73
2023-04-27T02:43:08.558Z,11.73
2023-04-27T02:43:30.450Z,11.73
2023-04-27T02:43:52.233Z,11.72
2023-04-27T02:44:14.016Z,11.72
2023-04-27T02:44:35.914Z,11.71
2023-04-27T02:44:57.681Z,11.71
2023-04-27T02:45:19.394Z,11.70
2023-04-27T02:45:41.661Z,11.71
2023-04-27T02:46:03.808Z,11.70
2023-04-27T02:46:27.251Z,11.70
2023-04-27T02:46:50.202Z,11.70
2023-04-27T02:47:12.175Z,11.69
2023-04-27T02:47:34.269Z,11.68
2023-04-27T02:47:56.285Z,11.67
2023-04-27T02:48:18.446Z,11.65
2023-04-27T02:48:40.233Z,11.64
2023-04-27T02:49:02.144Z,11.63
2023-04-27T02:49:24.358Z,11.62
2023-04-27T02:49:46.198Z,11.62
2023-04-27T02:50:08.293Z,11.62
2023-04-27T02:50:30.172Z,11.63
2023-04-27T02:50:52.480Z,11.64
2023-04-27T02:51:14.262Z,11.64
2023-04-27T02:51:36.042Z,11.66
2023-04-27T02:51:57.933Z,11.67
2023-04-27T02:52:19.706Z,11.69
2023-04-27T02:52:41.497Z,11.69
2023-04-27T02:53:03.378Z,11.71
2023-04-27T02:53:25.176Z,11.72
2023-04-27T02:53:46.948Z,11.72
2023-04-27T02:54:09.352Z,11.72
2023-04-27T02:54:31.440Z,11.72
2023-04-27T02:54:53.164Z,11.72
2023-04-27T02:55:14.938Z,11.73
2023-04-27T02:55:37.510Z,11.72
2023-04-27T02:55:59.442Z,11.72
2023-04-27T02:56:21.384Z,11.72
2023-04-27T02:56:43.168Z,11.72
2023-04-27T02:57:04.989Z,11.72
2023-04-27T02:57:27.656Z,11.71
2023-04-27T02:57:49.378Z,11.71
2023-04-27T02:58:11.228Z,11.72
2023-04-27T02:58:33.216Z,11.71
2023-04-27T02:58:54.999Z,11.70
2023-04-27T02:59:17.300Z,11.70
2023-04-27T02:59:39.704Z,11.70
2023-04-27T03:00:02.761Z,11.69
2023-04-27T03:00:25.561Z,11.68
2023-04-27T03:00:48.782Z,11.69
2023-04-27T03:01:10.896Z,11.68
2023-04-27T03:01:32.955Z,11.68
2023-04-27T03:01:54.904Z,11.67
2023-04-27T03:02:17.119Z,11.67
2023-04-27T03:02:39.216Z,11.67
2023-04-27T03:03:01.776Z,11.67
2023-04-27T03:03:24.282Z,11.67
2023-04-27T03:03:47.724Z,11.68
2023-04-27T03:04:09.937Z,11.69
2023-04-27T03:04:31.974Z,11.71
2023-04-27T03:04:55.112Z,11.73
2023-04-27T03:05:17.022Z,11.75
2023-04-27T03:05:38.886Z,11.76
2023-04-27T03:06:00.869Z,11.78
2023-04-27T03:06:22.575Z,11.79
2023-04-27T03:06:44.520Z,11.80
2023-04-27T03:07:06.631Z,11.81
2023-04-27T03:07:28.423Z,11.82
2023-04-27T03:07:51.123Z,11.82
2023-04-27T03:08:12.872Z,11.82
2023-04-27T03:08:34.696Z,11.82
2023-04-27T03:08:56.476Z,11.82
2023-04-27T03:09:18.224Z,11.82
2023-04-27T03:09:40.041Z,11.81
2023-04-27T03:10:02.057Z,11.81
2023-04-27T03:10:25.251Z,11.80
2023-04-27T03:10:47.236Z,11.80
2023-04-27T03:11:09.847Z,11.79
2023-04-27T03:11:31.645Z,11.78
2023-04-27T03:11:53.430Z,11.77
2023-04-27T03:12:15.812Z,11.77
2023-04-27T03:12:37.596Z,11.77
2023-04-27T03:12:59.375Z,11.76
2023-04-27T03:13:22.616Z,11.76
2023-04-27T03:13:44.383Z,11.75
2023-04-27T03:14:06.473Z,11.75
2023-04-27T03:14:29.689Z,11.74
2023-04-27T03:14:52.907Z,11.74
2023-04-27T03:15:14.686Z,11.73
2023-04-27T03:15:36.401Z,11.72
2023-04-27T03:15:58.206Z,11.72
2023-04-27T03:16:20.108Z,11.71
2023-04-27T03:16:41.961Z,11.71
2023-04-27T03:17:03.933Z,11.71
2023-04-27T03:17:25.913Z,11.71
2023-04-27T03:17:47.780Z,11.72
2023-04-27T03:18:09.545Z,11.73
2023-04-27T03:18:31.565Z,11.73
2023-04-27T03:18:53.352Z,11.74
2023-04-27T03:19:15.375Z,11.75
2023-04-27T03:19:37.439Z,11.75
2023-04-27T03:19:59.199Z,11.76
2023-04-27T03:20:21.823Z,11.76
2023-04-27T03:20:43.598Z,11.76
2023-04-27T03:21:08.711Z,11.76
2023-04-27T03:21:30.444Z,11.76
2023-04-27T03:21:52.235Z,11.75
2023-04-27T03:22:14.014Z,11.75
2023-04-27T03:22:37.227Z,11.75
2023-04-27T03:22:59.016Z,11.74
2023-04-27T03:23:20.799Z,11.74
2023-04-27T03:23:42.788Z,11.74
2023-04-27T03:24:04.881Z,11.74
2023-04-27T03:24:26.869Z,11.74
2023-04-27T03:24:48.854Z,11.74
2023-04-27T03:25:11.017Z,11.74
2023-04-27T03:25:34.061Z,11.74
2023-04-27T03:25:56.259Z,11.73
2023-04-27T03:26:18.969Z,11.73
2023-04-27T03:26:40.747Z,11.73
2023-04-27T03:27:03.455Z,11.73
2023-04-27T03:27:25.166Z,11.73
2023-04-27T03:27:46.917Z,11.73
2023-04-27T03:28:08.698Z,11.72
2023-04-27T03:28:30.791Z,11.72
2023-04-27T03:28:52.579Z,11.71
2023-04-27T03:29:14.801Z,11.71
2023-04-27T03:29:36.863Z,11.70
2023-04-27T03:29:59.872Z,11.69
2023-04-27T03:30:21.864Z,11.69
2023-04-27T03:30:43.615Z,11.70
2023-04-27T03:31:08.607Z,11.70
2023-04-27T03:31:30.616Z,11.71
2023-04-27T03:31:52.427Z,11.72
2023-04-27T03:32:14.486Z,11.73
2023-04-27T03:32:36.487Z,11.75
2023-04-27T03:32:58.425Z,11.76
2023-04-27T03:33:20.329Z,11.78
2023-04-27T03:33:42.226Z,11.79
2023-04-27T03:34:04.012Z,11.82
2023-04-27T03:34:25.792Z,11.83
2023-04-27T03:34:47.775Z,11.84
2023-04-27T03:35:10.278Z,11.85
2023-04-27T03:35:32.060Z,11.85
2023-04-27T03:35:57.432Z,11.86
2023-04-27T03:36:19.152Z,11.86
2023-04-27T03:36:41.093Z,11.86
2023-04-27T03:37:05.233Z,11.87
2023-04-27T03:37:27.023Z,11.87
2023-04-27T03:37:48.792Z,11.87
2023-04-27T03:38:10.511Z,11.87
2023-04-27T03:38:32.257Z,11.88
2023-04-27T03:38:54.053Z,11.88
2023-04-27T03:39:16.380Z,11.89
2023-04-27T03:39:39.512Z,11.89
2023-04-27T03:40:01.575Z,11.89
2023-04-27T03:40:24.161Z,11.90
2023-04-27T03:40:46.147Z,11.90
2023-04-27T03:41:07.832Z,11.91
2023-04-27T03:41:30.953Z,11.91
2023-04-27T03:41:52.731Z,11.92
2023-04-27T03:42:14.518Z,11.92
2023-04-27T03:42:36.406Z,11.92
2023-04-27T03:42:59.152Z,11.92
2023-04-27T03:43:21.724Z,11.92
2023-04-27T03:43:43.512Z,11.91
2023-04-27T03:44:05.703Z,11.91
2023-04-27T03:44:28.185Z,11.91
2023-04-27T03:44:50.076Z,11.91
2023-04-27T03:45:12.483Z,11.91
2023-04-27T03:45:34.884Z,11.92
2023-04-27T03:45:56.995Z,11.93
2023-04-27T03:46:19.181Z,11.94
2023-04-27T03:46:41.549Z,11.95
2023-04-27T03:47:03.954Z,11.96
2023-04-27T03:47:25.858Z,11.97
2023-04-27T03:47:48.485Z,11.98
2023-04-27T03:48:10.834Z,11.98
2023-04-27T03:48:32.832Z,11.98
2023-04-27T03:48:55.637Z,11.98
2023-04-27T03:49:17.517Z,11.98
2023-04-27T03:49:40.323Z,11.98
2023-04-27T03:50:02.318Z,11.97
2023-04-27T03:50:24.103Z,11.96
2023-04-27T03:50:46.705Z,11.95
2023-04-27T03:51:08.491Z,11.93
2023-04-27T03:51:32.727Z,11.93
2023-04-27T03:51:54.443Z,11.92
2023-04-27T03:52:16.499Z,11.90
2023-04-27T03:52:38.284Z,11.90
2023-04-27T03:53:00.095Z,11.89
2023-04-27T03:53:21.838Z,11.88
2023-04-27T03:53:44.149Z,11.87
2023-04-27T03:54:06.047Z,11.87
2023-04-27T03:54:28.047Z,11.86
2023-04-27T03:54:50.435Z,11.86
2023-04-27T03:55:13.743Z,11.85
2023-04-27T03:55:42.586Z,11.84
2023-04-27T03:56:05.081Z,11.84
2023-04-27T03:56:27.074Z,11.83
2023-04-27T03:56:49.063Z,11.82
2023-04-27T03:57:11.254Z,11.82
2023-04-27T03:57:33.007Z,11.82
2023-04-27T03:57:54.793Z,11.82
2023-04-27T03:58:17.732Z,11.82
2023-04-27T03:58:56.397Z,11.84
2023-04-27T03:59:25.779Z,11.86
2023-04-27T03:59:47.531Z,11.87
2023-04-27T04:00:12.144Z,11.89
2023-04-27T04:00:37.547Z,11.91
2023-04-27T04:00:59.535Z,11.93
2023-04-27T04:01:22.140Z,11.94
2023-04-27T04:01:44.067Z,11.96
2023-04-27T04:02:06.705Z,11.98
2023-04-27T04:02:28.642Z,11.99
2023-04-27T04:02:52.509Z,12.01
2023-04-27T04:03:14.895Z,12.01
2023-04-27T04:03:37.436Z,12.02
2023-04-27T04:04:00.715Z,12.03
2023-04-27T04:04:23.075Z,12.03
2023-04-27T04:04:45.188Z,12.03
2023-04-27T04:05:07.685Z,12.03
2023-04-27T04:05:30.765Z,12.03
2023-04-27T04:05:52.549Z,12.03
2023-04-27T04:06:14.440Z,12.03
2023-04-27T04:06:36.578Z,12.03
2023-04-27T04:06:58.309Z,12.03
2023-04-27T04:07:20.938Z,12.02
2023-04-27T04:07:43.825Z,12.02
2023-04-27T04:08:06.692Z,12.02
2023-04-27T04:08:28.523Z,12.01
2023-04-27T04:08:50.714Z,12.01
2023-04-27T04:09:13.196Z,12.00
2023-04-27T04:09:35.231Z,12.00
2023-04-27T04:09:57.091Z,12.00
2023-04-27T04:10:19.089Z,11.99
2023-04-27T04:10:41.078Z,11.98
2023-04-27T04:11:04.080Z,11.98
2023-04-27T04:11:26.275Z,11.98
2023-04-27T04:11:50.612Z,11.97
2023-04-27T04:12:12.909Z,11.98
2023-04-27T04:12:35.055Z,11.98
2023-04-27T04:12:57.091Z,11.98
2023-04-27T04:13:18.981Z,12.00
2023-04-27T04:13:42.230Z,12.01
2023-04-27T04:14:04.084Z,12.03
2023-04-27T04:14:25.974Z,12.04
2023-04-27T04:14:49.165Z,12.05
2023-04-27T04:15:11.722Z,12.06
2023-04-27T04:15:33.513Z,12.07
2023-04-27T04:16:08.222Z,12.08
2023-04-27T04:16:30.202Z,12.10
2023-04-27T04:16:52.118Z,12.09
2023-04-27T04:17:15.859Z,12.09
2023-04-27T04:17:37.772Z,12.08
2023-04-27T04:17:59.689Z,12.09
2023-04-27T04:18:21.713Z,12.08
2023-04-27T04:18:43.410Z,12.07
2023-04-27T04:19:05.588Z,12.07
2023-04-27T04:19:27.373Z,12.06
2023-04-27T04:19:49.156Z,12.05
2023-04-27T04:20:11.461Z,12.04
2023-04-27T04:20:34.872Z,12.03
2023-04-27T04:20:57.174Z,12.03
2023-04-27T04:21:18.891Z,12.01
2023-04-27T04:21:40.778Z,12.00
2023-04-27T04:22:03.337Z,11.99
2023-04-27T04:22:25.127Z,11.98
2023-04-27T04:22:48.134Z,11.97
2023-04-27T04:23:09.837Z,11.97
2023-04-27T04:23:33.094Z,11.96
2023-04-27T04:23:55.022Z,11.95
2023-04-27T04:24:17.622Z,11.95
2023-04-27T04:24:40.340Z,11.94
2023-04-27T04:25:02.839Z,11.93
2023-04-27T04:25:26.382Z,11.93
2023-04-27T04:25:48.477Z,11.93
2023-04-27T04:26:10.331Z,11.93
2023-04-27T04:26:32.539Z,11.94
2023-04-27T04:26:54.309Z,11.95
2023-04-27T04:27:16.095Z,11.96
2023-04-27T04:27:38.192Z,11.98
2023-04-27T04:28:00.073Z,12.00
2023-04-27T04:28:22.780Z,12.02
2023-04-27T04:28:45.889Z,12.04
2023-04-27T04:29:09.577Z,12.06
2023-04-27T04:29:33.142Z,12.07
2023-04-27T04:29:55.849Z,12.08
2023-04-27T04:30:17.862Z,12.09
2023-04-27T04:30:39.853Z,12.10
2023-04-27T04:31:02.068Z,12.10
2023-04-27T04:31:24.162Z,12.10
2023-04-27T04:31:46.127Z,12.11
2023-04-27T04:32:09.628Z,12.11
2023-04-27T04:32:32.133Z,12.11
2023-04-27T04:32:55.509Z,12.11
2023-04-27T04:33:17.480Z,12.11
2023-04-27T04:33:39.317Z,12.11
2023-04-27T04:34:02.024Z,12.12
2023-04-27T04:34:24.729Z,12.12
2023-04-27T04:34:51.054Z,12.12
2023-04-27T04:35:12.998Z,12.13
2023-04-27T04:35:34.786Z,12.13
2023-04-27T04:35:57.490Z,12.14
2023-04-27T04:36:19.379Z,12.14
2023-04-27T04:36:41.163Z,12.15
2023-04-27T04:37:04.795Z,12.15
2023-04-27T04:37:27.696Z,12.15
2023-04-27T04:37:50.210Z,12.15
2023-04-27T04:38:12.937Z,12.16
2023-04-27T04:38:35.649Z,12.17
2023-04-27T04:38:58.824Z,12.17
2023-04-27T04:39:21.116Z,12.18
2023-04-27T04:39:42.906Z,12.18
2023-04-27T04:40:09.248Z,12.19
2023-04-27T04:40:31.588Z,12.21
2023-04-27T04:40:53.898Z,12.21
2023-04-27T04:41:16.086Z,12.22
2023-04-27T04:41:38.416Z,12.23
2023-04-27T04:42:01.737Z,12.25
2023-04-27T04:42:23.988Z,12.27
2023-04-27T04:42:46.813Z,12.29
2023-04-27T04:43:08.588Z,12.31
2023-04-27T04:43:30.776Z,12.34
2023-04-27T04:43:52.660Z,12.37
2023-04-27T04:44:14.457Z,12.40
2023-04-27T04:44:36.840Z,12.42
2023-04-27T04:44:59.340Z,12.44
2023-04-27T04:45:21.654Z,12.47
2023-04-27T04:45:43.932Z,12.49
2023-04-27T04:46:07.210Z,12.51
2023-04-27T04:46:31.010Z,12.54
2023-04-27T04:46:53.321Z,12.56
2023-04-27T04:47:15.262Z,12.58
2023-04-27T04:47:37.056Z,12.60
2023-04-27T04:48:01.278Z,12.62